createdAt,value
2023-04-13T00:02:16.902Z,90.31
2023-04-13T00:12:40.954Z,90.91
2023-04-13T00:23:02.872Z,89.24
2023-04-13T00:33:24.271Z,90.13
2023-04-13T00:43:45.869Z,89.75
2023-04-13T00:54:07.314Z,91.38
2023-04-13T01:04:30.527Z,90.45
2023-04-13T01:14:58.972Z,90.42
2023-04-13T01:25:21.496Z,90.81
2023-04-13T01:35:44.674Z,90.46
2023-04-13T01:46:06.443Z,90.69
2023-04-13T01:56:28.565Z,90.71
2023-04-13T02:06:51.557Z,92.00
2023-04-13T02:17:12.921Z,90.98
2023-04-13T02:27:38.814Z,90.90
2023-04-13T02:38:00.220Z,90.53
2023-04-13T02:48:21.859Z,91.17
2023-04-13T02:58:44.671Z,89.64
2023-04-13T03:09:06.036Z,90.16
2023-04-13T03:19:28.601Z,88.61
2023-04-13T03:29:50.028Z,91.84
2023-04-13T03:40:11.609Z,94.01
2023-04-13T03:50:33.018Z,93.40
2023-04-13T04:00:54.357Z,93.94
2023-04-13T04:11:16.712Z,93.38
2023-04-13T04:21:38.059Z,93.41
2023-04-13T04:32:03.316Z,92.46
2023-04-13T04:42:24.815Z,93.27
2023-04-13T04:52:46.170Z,93.98
2023-04-13T05:03:08.264Z,92.97
2023-04-13T05:13:29.758Z,93.85
2023-04-13T05:23:51.121Z,93.66
2023-04-13T05:34:12.879Z,92.88
2023-04-13T05:44:34.231Z,93.75
2023-04-13T05:54:56.094Z,92.84
2023-04-13T06:05:18.321Z,94.09
2023-04-13T06:15:40.252Z,91.06
2023-04-13T06:26:03.756Z,93.51
2023-04-13T06:36:26.584Z,92.39
2023-04-13T06:46:48.034Z,91.62
2023-04-13T06:57:09.475Z,92.30
2023-04-13T07:07:30.912Z,90.97
2023-04-13T07:17:52.472Z,88.50
2023-04-13T07:28:14.048Z,87.74
2023-04-13T07:38:35.445Z,86.83
2023-04-13T07:48:56.924Z,84.83
2023-04-13T07:59:18.292Z,83.72
2023-04-13T08:09:40.329Z,83.86
2023-04-13T08:20:01.819Z,83.27
2023-04-13T08:30:23.234Z,81.91
2023-04-13T08:40:44.800Z,80.93
2023-04-13T08:51:07.375Z,78.97
2023-04-13T09:01:31.344Z,78.92
2023-04-13T09:11:53.044Z,79.31
2023-04-13T09:22:15.197Z,75.27
2023-04-13T09:32:39.106Z,75.66
2023-04-13T09:43:01.394Z,77.09
2023-04-13T09:53:22.761Z,77.80
2023-04-13T10:03:44.413Z,81.85
2023-04-13T10:14:09.297Z,83.80
2023-04-13T10:24:30.813Z,82.55
2023-04-13T10:34:53.152Z,83.84
2023-04-13T10:45:35.966Z,75.72
2023-04-13T10:55:57.857Z,74.16
2023-04-13T11:06:19.606Z,75.30
2023-04-13T11:16:45.066Z,76.71
2023-04-13T11:27:16.231Z,79.66
2023-04-13T11:37:41.983Z,83.97
2023-04-13T11:48:06.153Z,85.22
2023-04-13T11:58:28.277Z,86.49
2023-04-13T12:08:57.728Z,85.38
2023-04-13T12:19:27.222Z,80.95
2023-04-13T12:29:49.364Z,78.71
2023-04-13T12:40:12.638Z,76.92
2023-04-13T12:50:34.446Z,77.33
2023-04-13T13:00:55.941Z,77.67
2023-04-13T13:11:17.563Z,79.71
2023-04-13T13:21:38.913Z,77.28
2023-04-13T13:32:00.424Z,75.06
2023-04-13T13:42:21.880Z,72.92
2023-04-13T13:52:55.218Z,77.11
2023-04-13T14:03:21.766Z,78.34
2023-04-13T14:13:43.248Z,74.70
2023-04-13T14:24:04.927Z,70.34
2023-04-13T14:34:26.382Z,68.30
2023-04-13T14:44:48.140Z,68.68
2023-04-13T14:55:10.007Z,62.80
2023-04-13T15:05:35.571Z,64.12
2023-04-13T15:15:57.260Z,64.56
2023-04-13T15:26:19.454Z,64.36
2023-04-13T15:36:40.893Z,65.67
2023-04-13T15:47:03.192Z,66.55
2023-04-13T15:57:24.706Z,67.76
2023-04-13T16:07:46.305Z,68.70
2023-04-13T16:18:08.027Z,67.65
2023-04-13T16:28:29.757Z,64.58
2023-04-13T16:38:53.018Z,67.77
2023-04-13T16:49:14.394Z,66.89
2023-04-13T16:59:35.966Z,67.65
2023-04-13T17:09:57.437Z,66.44
2023-04-13T17:20:18.889Z,65.12
2023-04-13T17:30:40.343Z,68.17
2023-04-13T17:41:01.880Z,66.20
2023-04-13T17:51:23.305Z,67.67
2023-04-13T18:01:45.157Z,68.95
2023-04-13T18:12:06.767Z,71.33
2023-04-13T18:22:28.243Z,73.19
2023-04-13T18:32:51.433Z,74.48
2023-04-13T18:43:12.946Z,75.23
2023-04-13T18:53:34.349Z,76.43
2023-04-13T19:03:55.867Z,76.39
2023-04-13T19:14:17.582Z,77.08
2023-04-13T19:24:39.054Z,77.76
2023-04-13T19:35:00.445Z,77.44
2023-04-13T19:45:21.816Z,78.40
2023-04-13T19:55:43.261Z,78.75
2023-04-13T20:06:04.684Z,79.27
2023-04-13T20:16:27.130Z,79.78
2023-04-13T20:26:48.589Z,80.08
2023-04-13T20:37:10.233Z,79.96
2023-04-13T20:47:31.691Z,80.20
2023-04-13T20:57:53.202Z,80.54
2023-04-13T21:08:14.910Z,80.64
2023-04-13T21:18:36.892Z,80.37
2023-04-13T21:28:58.555Z,81.89
2023-04-13T21:39:20.584Z,81.22
2023-04-13T21:49:43.177Z,83.21
2023-04-13T22:00:06.556Z,81.97
2023-04-13T22:10:28.288Z,82.51
2023-04-13T22:20:49.797Z,82.10
2023-04-13T22:31:12.033Z,82.65
2023-04-13T22:41:34.026Z,83.08
2023-04-13T22:51:56.235Z,83.02
2023-04-13T23:02:17.765Z,84.16
2023-04-13T23:12:39.941Z,84.20
2023-04-13T23:23:01.723Z,84.47
2023-04-13T23:33:23.134Z,84.84
2023-04-13T23:43:44.505Z,84.80
2023-04-13T23:54:06.127Z,84.92
